<?xml version="1.0" encoding="UTF-8" standalone="no" ?>
<gpx xmlns="http://www.topografix.com/GPX/1/1" xmlns:xsi="http://www.w3.org/2001/XMLSchema-instance" xsi:schemaLocation="http://www.topografix.com/GPX/1/1 http://www.topografix.com/GPX/1/1/gpx.xsd" version="1.1" creator="VisuGPX - https://www.visugpx.com">
  <metadata>
    <name>boucle benjamin</name>
    <desc><![CDATA[boucle benjamin TRJV]]></desc>
  </metadata>
  <trk>
    <name><![CDATA[2013-06-16T10:54:46Z]]></name>
    <trkseg>
      <trkpt lat="45.65178" lon="5.98676">
        <ele>1342.259</ele>
        <time>2013-06-16T10:54:48Z</time>
      </trkpt>
      <trkpt lat="45.65186" lon="5.98681">
        <ele>1341.979</ele>
        <time>2013-06-16T10:54:53Z</time>
      </trkpt>
      <trkpt lat="45.65205" lon="5.98693">
        <ele>1342.53</ele>
        <time>2013-06-16T10:54:59Z</time>
      </trkpt>
      <trkpt lat="45.65222" lon="5.98714">
        <ele>1344.801</ele>
        <time>2013-06-16T10:55:06Z</time>
      </trkpt>
      <trkpt lat="45.65237" lon="5.98732">
        <ele>1344.669</ele>
        <time>2013-06-16T10:55:12Z</time>
      </trkpt>
      <trkpt lat="45.65264" lon="5.98744">
        <ele>1345.49</ele>
        <time>2013-06-16T10:55:19Z</time>
      </trkpt>
      <trkpt lat="45.65285" lon="5.98754">
        <ele>1347.06</ele>
        <time>2013-06-16T10:55:25Z</time>
      </trkpt>
      <trkpt lat="45.65299" lon="5.98758">
        <ele>1348.75</ele>
        <time>2013-06-16T10:55:30Z</time>
      </trkpt>
      <trkpt lat="45.65318" lon="5.98764">
        <ele>1350.73</ele>
        <time>2013-06-16T10:55:36Z</time>
      </trkpt>
      <trkpt lat="45.6533" lon="5.98779">
        <ele>1352.06</ele>
        <time>2013-06-16T10:55:41Z</time>
      </trkpt>
      <trkpt lat="45.65337" lon="5.98796">
        <ele>1352.879</ele>
        <time>2013-06-16T10:55:46Z</time>
      </trkpt>
      <trkpt lat="45.65344" lon="5.98815">
        <ele>1352.879</ele>
        <time>2013-06-16T10:55:51Z</time>
      </trkpt>
      <trkpt lat="45.65335" lon="5.98818">
        <ele>1349.417</ele>
        <time>2013-06-16T10:55:54Z</time>
      </trkpt>
      <trkpt lat="45.65309" lon="5.98825">
        <ele>1344.516</ele>
        <time>2013-06-16T10:55:59Z</time>
      </trkpt>
      <trkpt lat="45.65297" lon="5.98824">
        <ele>1343.347</ele>
        <time>2013-06-16T10:56:01Z</time>
      </trkpt>
      <trkpt lat="45.65275" lon="5.98821">
        <ele>1342.437</ele>
        <time>2013-06-16T10:56:05Z</time>
      </trkpt>
      <trkpt lat="45.65257" lon="5.98831">
        <ele>1340.907</ele>
        <time>2013-06-16T10:56:09Z</time>
      </trkpt>
      <trkpt lat="45.65252" lon="5.98836">
        <ele>1340.336</ele>
        <time>2013-06-16T10:56:10Z</time>
      </trkpt>
      <trkpt lat="45.65238" lon="5.98849">
        <ele>1338.846</ele>
        <time>2013-06-16T10:56:13Z</time>
      </trkpt>
      <trkpt lat="45.65224" lon="5.98872">
        <ele>1337.158</ele>
        <time>2013-06-16T10:56:17Z</time>
      </trkpt>
      <trkpt lat="45.65223" lon="5.98878">
        <ele>1337.149</ele>
        <time>2013-06-16T10:56:18Z</time>
      </trkpt>
      <trkpt lat="45.65215" lon="5.98919">
        <ele>1337.29</ele>
        <time>2013-06-16T10:56:25Z</time>
      </trkpt>
      <trkpt lat="45.65216" lon="5.98934">
        <ele>1337.5</ele>
        <time>2013-06-16T10:56:28Z</time>
      </trkpt>
      <trkpt lat="45.65239" lon="5.98954">
        <ele>1338.16</ele>
        <time>2013-06-16T10:56:36Z</time>
      </trkpt>
      <trkpt lat="45.65256" lon="5.98972">
        <ele>1338.869</ele>
        <time>2013-06-16T10:56:42Z</time>
      </trkpt>
      <trkpt lat="45.6526" lon="5.98982">
        <ele>1338.709</ele>
        <time>2013-06-16T10:56:44Z</time>
      </trkpt>
      <trkpt lat="45.65271" lon="5.99025">
        <ele>1337.098</ele>
        <time>2013-06-16T10:56:50Z</time>
      </trkpt>
      <trkpt lat="45.65284" lon="5.99055">
        <ele>1336.709</ele>
        <time>2013-06-16T10:56:55Z</time>
      </trkpt>
      <trkpt lat="45.65305" lon="5.99085">
        <ele>1336.95</ele>
        <time>2013-06-16T10:57:01Z</time>
      </trkpt>
      <trkpt lat="45.65331" lon="5.99105">
        <ele>1339.041</ele>
        <time>2013-06-16T10:57:08Z</time>
      </trkpt>
      <trkpt lat="45.65353" lon="5.99127">
        <ele>1342.351</ele>
        <time>2013-06-16T10:57:15Z</time>
      </trkpt>
      <trkpt lat="45.65367" lon="5.9916">
        <ele>1343.66</ele>
        <time>2013-06-16T10:57:22Z</time>
      </trkpt>
      <trkpt lat="45.65369" lon="5.99165">
        <ele>1343.9</ele>
        <time>2013-06-16T10:57:23Z</time>
      </trkpt>
      <trkpt lat="45.65371" lon="5.9919">
        <ele>1343.599</ele>
        <time>2013-06-16T10:57:27Z</time>
      </trkpt>
      <trkpt lat="45.65371" lon="5.99237">
        <ele>1344.422</ele>
        <time>2013-06-16T10:57:34Z</time>
      </trkpt>
      <trkpt lat="45.65377" lon="5.99267">
        <ele>1347.332</ele>
        <time>2013-06-16T10:57:40Z</time>
      </trkpt>
      <trkpt lat="45.65376" lon="5.993">
        <ele>1349.061</ele>
        <time>2013-06-16T10:57:46Z</time>
      </trkpt>
      <trkpt lat="45.65379" lon="5.99332">
        <ele>1349.481</ele>
        <time>2013-06-16T10:57:52Z</time>
      </trkpt>
      <trkpt lat="45.65386" lon="5.99368">
        <ele>1351.631</ele>
        <time>2013-06-16T10:57:59Z</time>
      </trkpt>
      <trkpt lat="45.65401" lon="5.99409">
        <ele>1354.54</ele>
        <time>2013-06-16T10:58:08Z</time>
      </trkpt>
      <trkpt lat="45.65419" lon="5.99441">
        <ele>1355.49</ele>
        <time>2013-06-16T10:58:16Z</time>
      </trkpt>
      <trkpt lat="45.65436" lon="5.99472">
        <ele>1354.789</ele>
        <time>2013-06-16T10:58:23Z</time>
      </trkpt>
      <trkpt lat="45.65452" lon="5.99505">
        <ele>1354.998</ele>
        <time>2013-06-16T10:58:29Z</time>
      </trkpt>
      <trkpt lat="45.6546" lon="5.99528">
        <ele>1355.7</ele>
        <time>2013-06-16T10:58:32Z</time>
      </trkpt>
      <trkpt lat="45.65467" lon="5.99575">
        <ele>1354.91</ele>
        <time>2013-06-16T10:58:38Z</time>
      </trkpt>
      <trkpt lat="45.6547" lon="5.99595">
        <ele>1354.23</ele>
        <time>2013-06-16T10:58:41Z</time>
      </trkpt>
      <trkpt lat="45.65489" lon="5.99632">
        <ele>1353.829</ele>
        <time>2013-06-16T10:58:48Z</time>
      </trkpt>
      <trkpt lat="45.65506" lon="5.99665">
        <ele>1353.359</ele>
        <time>2013-06-16T10:58:55Z</time>
      </trkpt>
      <trkpt lat="45.65528" lon="5.99703">
        <ele>1352.609</ele>
        <time>2013-06-16T10:59:03Z</time>
      </trkpt>
      <trkpt lat="45.65554" lon="5.99748">
        <ele>1352.919</ele>
        <time>2013-06-16T10:59:11Z</time>
      </trkpt>
      <trkpt lat="45.65582" lon="5.99795">
        <ele>1352.519</ele>
        <time>2013-06-16T10:59:19Z</time>
      </trkpt>
      <trkpt lat="45.65585" lon="5.99802">
        <ele>1352.39</ele>
        <time>2013-06-16T10:59:20Z</time>
      </trkpt>
      <trkpt lat="45.65602" lon="5.99825">
        <ele>1352.561</ele>
        <time>2013-06-16T10:59:25Z</time>
      </trkpt>
      <trkpt lat="45.65615" lon="5.99833">
        <ele>1353.721</ele>
        <time>2013-06-16T10:59:29Z</time>
      </trkpt>
      <trkpt lat="45.65629" lon="5.99854">
        <ele>1355.881</ele>
        <time>2013-06-16T10:59:35Z</time>
      </trkpt>
      <trkpt lat="45.65636" lon="5.99868">
        <ele>1356.451</ele>
        <time>2013-06-16T10:59:40Z</time>
      </trkpt>
      <trkpt lat="45.65639" lon="5.99872">
        <ele>1356.611</ele>
        <time>2013-06-16T10:59:41Z</time>
      </trkpt>
      <trkpt lat="45.65652" lon="5.99876">
        <ele>1355.7</ele>
        <time>2013-06-16T10:59:45Z</time>
      </trkpt>
      <trkpt lat="45.6566" lon="5.99866">
        <ele>1355.691</ele>
        <time>2013-06-16T10:59:48Z</time>
      </trkpt>
      <trkpt lat="45.65666" lon="5.99865">
        <ele>1355.561</ele>
        <time>2013-06-16T10:59:50Z</time>
      </trkpt>
      <trkpt lat="45.65683" lon="5.99854">
        <ele>1356.852</ele>
        <time>2013-06-16T10:59:55Z</time>
      </trkpt>
      <trkpt lat="45.65699" lon="5.99844">
        <ele>1357.432</ele>
        <time>2013-06-16T11:00:00Z</time>
      </trkpt>
      <trkpt lat="45.65711" lon="5.99849">
        <ele>1358.882</ele>
        <time>2013-06-16T11:00:04Z</time>
      </trkpt>
      <trkpt lat="45.65725" lon="5.99857">
        <ele>1359.681</ele>
        <time>2013-06-16T11:00:08Z</time>
      </trkpt>
      <trkpt lat="45.65742" lon="5.99854">
        <ele>1360.342</ele>
        <time>2013-06-16T11:00:12Z</time>
      </trkpt>
      <trkpt lat="45.65759" lon="5.99836">
        <ele>1361.422</ele>
        <time>2013-06-16T11:00:17Z</time>
      </trkpt>
      <trkpt lat="45.65774" lon="5.99811">
        <ele>1364.192</ele>
        <time>2013-06-16T11:00:23Z</time>
      </trkpt>
      <trkpt lat="45.65802" lon="5.99775">
        <ele>1365.211</ele>
        <time>2013-06-16T11:00:31Z</time>
      </trkpt>
      <trkpt lat="45.65808" lon="5.99768">
        <ele>1365.521</ele>
        <time>2013-06-16T11:00:33Z</time>
      </trkpt>
      <trkpt lat="45.65827" lon="5.99755">
        <ele>1363.78</ele>
        <time>2013-06-16T11:00:37Z</time>
      </trkpt>
      <trkpt lat="45.65839" lon="5.99738">
        <ele>1364.211</ele>
        <time>2013-06-16T11:00:41Z</time>
      </trkpt>
      <trkpt lat="45.65845" lon="5.99714">
        <ele>1362.779</ele>
        <time>2013-06-16T11:00:46Z</time>
      </trkpt>
      <trkpt lat="45.65852" lon="5.99685">
        <ele>1361.439</ele>
        <time>2013-06-16T11:00:50Z</time>
      </trkpt>
      <trkpt lat="45.6585" lon="5.99644">
        <ele>1361.101</ele>
        <time>2013-06-16T11:00:56Z</time>
      </trkpt>
      <trkpt lat="45.6585" lon="5.99639">
        <ele>1360.691</ele>
        <time>2013-06-16T11:00:57Z</time>
      </trkpt>
      <trkpt lat="45.65846" lon="5.99621">
        <ele>1360.231</ele>
        <time>2013-06-16T11:01:00Z</time>
      </trkpt>
      <trkpt lat="45.65837" lon="5.99597">
        <ele>1361.501</ele>
        <time>2013-06-16T11:01:05Z</time>
      </trkpt>
      <trkpt lat="45.65845" lon="5.99568">
        <ele>1360.861</ele>
        <time>2013-06-16T11:01:10Z</time>
      </trkpt>
      <trkpt lat="45.65851" lon="5.99544">
        <ele>1361.441</ele>
        <time>2013-06-16T11:01:14Z</time>
      </trkpt>
      <trkpt lat="45.65853" lon="5.99531">
        <ele>1361.301</ele>
        <time>2013-06-16T11:01:16Z</time>
      </trkpt>
      <trkpt lat="45.65858" lon="5.99498">
        <ele>1362.981</ele>
        <time>2013-06-16T11:01:22Z</time>
      </trkpt>
      <trkpt lat="45.6585" lon="5.99457">
        <ele>1363.971</ele>
        <time>2013-06-16T11:01:29Z</time>
      </trkpt>
      <trkpt lat="45.65848" lon="5.99451">
        <ele>1363.641</ele>
        <time>2013-06-16T11:01:30Z</time>
      </trkpt>
      <trkpt lat="45.65842" lon="5.9943">
        <ele>1362.99</ele>
        <time>2013-06-16T11:01:33Z</time>
      </trkpt>
      <trkpt lat="45.65837" lon="5.99401">
        <ele>1364.021</ele>
        <time>2013-06-16T11:01:38Z</time>
      </trkpt>
      <trkpt lat="45.65835" lon="5.99389">
        <ele>1364.811</ele>
        <time>2013-06-16T11:01:40Z</time>
      </trkpt>
      <trkpt lat="45.65831" lon="5.99368">
        <ele>1365.091</ele>
        <time>2013-06-16T11:01:43Z</time>
      </trkpt>
      <trkpt lat="45.65833" lon="5.99332">
        <ele>1365.341</ele>
        <time>2013-06-16T11:01:49Z</time>
      </trkpt>
      <trkpt lat="45.65836" lon="5.99321">
        <ele>1364.99</ele>
        <time>2013-06-16T11:01:51Z</time>
      </trkpt>
      <trkpt lat="45.65845" lon="5.99302">
        <ele>1365.17</ele>
        <time>2013-06-16T11:01:55Z</time>
      </trkpt>
      <trkpt lat="45.65846" lon="5.99297">
        <ele>1365.831</ele>
        <time>2013-06-16T11:01:56Z</time>
      </trkpt>
      <trkpt lat="45.65857" lon="5.99267">
        <ele>1366.87</ele>
        <time>2013-06-16T11:02:02Z</time>
      </trkpt>
      <trkpt lat="45.65866" lon="5.99249">
        <ele>1365.81</ele>
        <time>2013-06-16T11:02:05Z</time>
      </trkpt>
      <trkpt lat="45.65874" lon="5.99233">
        <ele>1364.469</ele>
        <time>2013-06-16T11:02:08Z</time>
      </trkpt>
      <trkpt lat="45.65879" lon="5.99205">
        <ele>1362.688</ele>
        <time>2013-06-16T11:02:13Z</time>
      </trkpt>
      <trkpt lat="45.6587" lon="5.99169">
        <ele>1366.012</ele>
        <time>2013-06-16T11:02:19Z</time>
      </trkpt>
      <trkpt lat="45.65861" lon="5.99147">
        <ele>1368.162</ele>
        <time>2013-06-16T11:02:24Z</time>
      </trkpt>
      <trkpt lat="45.65849" lon="5.99112">
        <ele>1369.252</ele>
        <time>2013-06-16T11:02:31Z</time>
      </trkpt>
      <trkpt lat="45.65843" lon="5.99092">
        <ele>1369.771</ele>
        <time>2013-06-16T11:02:34Z</time>
      </trkpt>
      <trkpt lat="45.65832" lon="5.99054">
        <ele>1372.182</ele>
        <time>2013-06-16T11:02:40Z</time>
      </trkpt>
      <trkpt lat="45.65818" lon="5.99029">
        <ele>1373.922</ele>
        <time>2013-06-16T11:02:46Z</time>
      </trkpt>
      <trkpt lat="45.65815" lon="5.99003">
        <ele>1374.361</ele>
        <time>2013-06-16T11:02:51Z</time>
      </trkpt>
      <trkpt lat="45.6581" lon="5.98977">
        <ele>1375.491</ele>
        <time>2013-06-16T11:02:55Z</time>
      </trkpt>
      <trkpt lat="45.65799" lon="5.98928">
        <ele>1379.112</ele>
        <time>2013-06-16T11:03:03Z</time>
      </trkpt>
      <trkpt lat="45.65795" lon="5.98907">
        <ele>1379.382</ele>
        <time>2013-06-16T11:03:08Z</time>
      </trkpt>
      <trkpt lat="45.65789" lon="5.98882">
        <ele>1380.471</ele>
        <time>2013-06-16T11:03:12Z</time>
      </trkpt>
      <trkpt lat="45.65788" lon="5.98875">
        <ele>1380.511</ele>
        <time>2013-06-16T11:03:13Z</time>
      </trkpt>
      <trkpt lat="45.65788" lon="5.98851">
        <ele>1379.931</ele>
        <time>2013-06-16T11:03:16Z</time>
      </trkpt>
      <trkpt lat="45.65785" lon="5.98823">
        <ele>1379.781</ele>
        <time>2013-06-16T11:03:20Z</time>
      </trkpt>
      <trkpt lat="45.65781" lon="5.98795">
        <ele>1379.801</ele>
        <time>2013-06-16T11:03:26Z</time>
      </trkpt>
      <trkpt lat="45.65775" lon="5.9876">
        <ele>1380.141</ele>
        <time>2013-06-16T11:03:33Z</time>
      </trkpt>
      <trkpt lat="45.65772" lon="5.98739">
        <ele>1380.231</ele>
        <time>2013-06-16T11:03:37Z</time>
      </trkpt>
      <trkpt lat="45.6577" lon="5.98722">
        <ele>1382.881</ele>
        <time>2013-06-16T11:03:41Z</time>
      </trkpt>
      <trkpt lat="45.65769" lon="5.98704">
        <ele>1382.4</ele>
        <time>2013-06-16T11:03:44Z</time>
      </trkpt>
      <trkpt lat="45.65766" lon="5.98679">
        <ele>1380.259</ele>
        <time>2013-06-16T11:03:47Z</time>
      </trkpt>
      <trkpt lat="45.6576" lon="5.98639">
        <ele>1378.299</ele>
        <time>2013-06-16T11:03:52Z</time>
      </trkpt>
      <trkpt lat="45.65765" lon="5.98605">
        <ele>1376.8</ele>
        <time>2013-06-16T11:03:57Z</time>
      </trkpt>
      <trkpt lat="45.65766" lon="5.9858">
        <ele>1377.37</ele>
        <time>2013-06-16T11:04:01Z</time>
      </trkpt>
      <trkpt lat="45.65758" lon="5.98558">
        <ele>1378.851</ele>
        <time>2013-06-16T11:04:05Z</time>
      </trkpt>
      <trkpt lat="45.65741" lon="5.9854">
        <ele>1380.271</ele>
        <time>2013-06-16T11:04:12Z</time>
      </trkpt>
      <trkpt lat="45.65721" lon="5.98542">
        <ele>1378.962</ele>
        <time>2013-06-16T11:04:18Z</time>
      </trkpt>
      <trkpt lat="45.65701" lon="5.98539">
        <ele>1378.881</ele>
        <time>2013-06-16T11:04:24Z</time>
      </trkpt>
      <trkpt lat="45.65687" lon="5.98534">
        <ele>1378.06</ele>
        <time>2013-06-16T11:04:28Z</time>
      </trkpt>
      <trkpt lat="45.65663" lon="5.98515">
        <ele>1376.399</ele>
        <time>2013-06-16T11:04:34Z</time>
      </trkpt>
      <trkpt lat="45.65643" lon="5.98501">
        <ele>1375.829</ele>
        <time>2013-06-16T11:04:39Z</time>
      </trkpt>
      <trkpt lat="45.65621" lon="5.98499">
        <ele>1376.539</ele>
        <time>2013-06-16T11:04:44Z</time>
      </trkpt>
      <trkpt lat="45.65598" lon="5.98497">
        <ele>1375.409</ele>
        <time>2013-06-16T11:04:49Z</time>
      </trkpt>
      <trkpt lat="45.65576" lon="5.98493">
        <ele>1374.599</ele>
        <time>2013-06-16T11:04:53Z</time>
      </trkpt>
      <trkpt lat="45.65547" lon="5.98478">
        <ele>1374.509</ele>
        <time>2013-06-16T11:04:59Z</time>
      </trkpt>
      <trkpt lat="45.65531" lon="5.98475">
        <ele>1376.25</ele>
        <time>2013-06-16T11:05:04Z</time>
      </trkpt>
      <trkpt lat="45.65527" lon="5.98476">
        <ele>1376.42</ele>
        <time>2013-06-16T11:05:06Z</time>
      </trkpt>
      <trkpt lat="45.65516" lon="5.98492">
        <ele>1376.889</ele>
        <time>2013-06-16T11:05:13Z</time>
      </trkpt>
      <trkpt lat="45.65508" lon="5.98515">
        <ele>1377.19</ele>
        <time>2013-06-16T11:05:20Z</time>
      </trkpt>
      <trkpt lat="45.65506" lon="5.98519">
        <ele>1377.62</ele>
        <time>2013-06-16T11:05:21Z</time>
      </trkpt>
      <trkpt lat="45.65494" lon="5.98523">
        <ele>1378.27</ele>
        <time>2013-06-16T11:05:26Z</time>
      </trkpt>
      <trkpt lat="45.65484" lon="5.98528">
        <ele>1378.51</ele>
        <time>2013-06-16T11:05:30Z</time>
      </trkpt>
      <trkpt lat="45.65474" lon="5.98526">
        <ele>1380.1</ele>
        <time>2013-06-16T11:05:35Z</time>
      </trkpt>
      <trkpt lat="45.65464" lon="5.98519">
        <ele>1379.419</ele>
        <time>2013-06-16T11:05:40Z</time>
      </trkpt>
      <trkpt lat="45.65459" lon="5.98516">
        <ele>1379.039</ele>
        <time>2013-06-16T11:05:43Z</time>
      </trkpt>
      <trkpt lat="45.65456" lon="5.98517">
        <ele>1380.72</ele>
        <time>2013-06-16T11:05:50Z</time>
      </trkpt>
      <trkpt lat="45.65453" lon="5.98512">
        <ele>1379.108</ele>
        <time>2013-06-16T11:05:56Z</time>
      </trkpt>
      <trkpt lat="45.65453" lon="5.9851">
        <ele>1378.729</ele>
        <time>2013-06-16T11:06:02Z</time>
      </trkpt>
      <trkpt lat="45.65451" lon="5.98508">
        <ele>1378.429</ele>
        <time>2013-06-16T11:06:04Z</time>
      </trkpt>
      <trkpt lat="45.65446" lon="5.98502">
        <ele>1377.458</ele>
        <time>2013-06-16T11:06:09Z</time>
      </trkpt>
      <trkpt lat="45.65442" lon="5.985">
        <ele>1376.038</ele>
        <time>2013-06-16T11:06:13Z</time>
      </trkpt>
      <trkpt lat="45.6543" lon="5.98505">
        <ele>1374.327</ele>
        <time>2013-06-16T11:06:17Z</time>
      </trkpt>
      <trkpt lat="45.65417" lon="5.98515">
        <ele>1373.497</ele>
        <time>2013-06-16T11:06:21Z</time>
      </trkpt>
      <trkpt lat="45.65409" lon="5.9852">
        <ele>1372.157</ele>
        <time>2013-06-16T11:06:24Z</time>
      </trkpt>
      <trkpt lat="45.65401" lon="5.98517">
        <ele>1371.058</ele>
        <time>2013-06-16T11:06:29Z</time>
      </trkpt>
      <trkpt lat="45.65396" lon="5.98515">
        <ele>1369.578</ele>
        <time>2013-06-16T11:06:35Z</time>
      </trkpt>
      <trkpt lat="45.65388" lon="5.98528">
        <ele>1369.168</ele>
        <time>2013-06-16T11:06:40Z</time>
      </trkpt>
      <trkpt lat="45.6538" lon="5.98528">
        <ele>1368.138</ele>
        <time>2013-06-16T11:06:43Z</time>
      </trkpt>
      <trkpt lat="45.65377" lon="5.98526">
        <ele>1368.088</ele>
        <time>2013-06-16T11:06:44Z</time>
      </trkpt>
      <trkpt lat="45.65364" lon="5.98517">
        <ele>1367.107</ele>
        <time>2013-06-16T11:06:48Z</time>
      </trkpt>
      <trkpt lat="45.65349" lon="5.98503">
        <ele>1363.225</ele>
        <time>2013-06-16T11:06:53Z</time>
      </trkpt>
      <trkpt lat="45.65331" lon="5.98512">
        <ele>1356.604</ele>
        <time>2013-06-16T11:06:59Z</time>
      </trkpt>
      <trkpt lat="45.65323" lon="5.98518">
        <ele>1353.723</ele>
        <time>2013-06-16T11:07:01Z</time>
      </trkpt>
      <trkpt lat="45.65305" lon="5.98513">
        <ele>1350.155</ele>
        <time>2013-06-16T11:07:05Z</time>
      </trkpt>
      <trkpt lat="45.65284" lon="5.98515">
        <ele>1345.414</ele>
        <time>2013-06-16T11:07:10Z</time>
      </trkpt>
      <trkpt lat="45.65272" lon="5.98516">
        <ele>1343.005</ele>
        <time>2013-06-16T11:07:13Z</time>
      </trkpt>
      <trkpt lat="45.65259" lon="5.98512">
        <ele>1347.357</ele>
        <time>2013-06-16T11:07:19Z</time>
      </trkpt>
      <trkpt lat="45.65244" lon="5.98507">
        <ele>1346.727</ele>
        <time>2013-06-16T11:07:23Z</time>
      </trkpt>
      <trkpt lat="45.65225" lon="5.9853">
        <ele>1345.447</ele>
        <time>2013-06-16T11:07:28Z</time>
      </trkpt>
      <trkpt lat="45.65216" lon="5.98541">
        <ele>1346.898</ele>
        <time>2013-06-16T11:07:30Z</time>
      </trkpt>
      <trkpt lat="45.65202" lon="5.98554">
        <ele>1346.908</ele>
        <time>2013-06-16T11:07:33Z</time>
      </trkpt>
      <trkpt lat="45.65175" lon="5.98566">
        <ele>1346.858</ele>
        <time>2013-06-16T11:07:39Z</time>
      </trkpt>
      <trkpt lat="45.6515" lon="5.98575">
        <ele>1344.606</ele>
        <time>2013-06-16T11:07:44Z</time>
      </trkpt>
      <trkpt lat="45.65136" lon="5.9858">
        <ele>1343.527</ele>
        <time>2013-06-16T11:07:46Z</time>
      </trkpt>
      <trkpt lat="45.65123" lon="5.98586">
        <ele>1343.568</ele>
        <time>2013-06-16T11:07:48Z</time>
      </trkpt>
      <trkpt lat="45.65098" lon="5.98586">
        <ele>1343.608</ele>
        <time>2013-06-16T11:07:53Z</time>
      </trkpt>
      <trkpt lat="45.6509" lon="5.98592">
        <ele>1342.508</ele>
        <time>2013-06-16T11:07:58Z</time>
      </trkpt>
      <trkpt lat="45.65093" lon="5.98596">
        <ele>1342.438</ele>
        <time>2013-06-16T11:07:59Z</time>
      </trkpt>
      <trkpt lat="45.651" lon="5.98604">
        <ele>1342.218</ele>
        <time>2013-06-16T11:08:01Z</time>
      </trkpt>
      <trkpt lat="45.65127" lon="5.98618">
        <ele>1339.747</ele>
        <time>2013-06-16T11:08:06Z</time>
      </trkpt>
      <trkpt lat="45.65132" lon="5.98621">
        <ele>1339.417</ele>
        <time>2013-06-16T11:08:07Z</time>
      </trkpt>
      <trkpt lat="45.65159" lon="5.98651">
        <ele>1337.637</ele>
        <time>2013-06-16T11:08:13Z</time>
      </trkpt>
      <trkpt lat="45.65172" lon="5.9867">
        <ele>1336.627</ele>
        <time>2013-06-16T11:08:16Z</time>
      </trkpt>
      <trkpt lat="45.65178" lon="5.98676">
        <ele>1336.006</ele>
        <time>2013-06-16T11:08:19Z</time>
      </trkpt>
    </trkseg>
  </trk>
</gpx>